Time;durP1;ratioP1;P1;durP2;ratioP2;P2;SDS_P1;SDS_P2;PMS_P1;PMS_P2;Temp;Humidity;BMP_temperature;BMP_pressure;BME280_temperature;BME280_humidity;BME280_pressure;Samples;Min_cycle;Max_cycle;Signal;HPM_P1;HPM_P2
2023/08/21 00:00:27;;;;;;;22.17;17.33;;;;;;;19.15;100.00;99109.44;4174810;28;20037;-75
2023/08/21 00:02:27;;;;;;;22.30;16.95;;;;;;;19.18;100.00;99109.38;4174719;28;20175;-75
2023/08/21 00:04:28;;;;;;;23.15;17.80;;;;;;;19.21;100.00;99122.59;4174370;28;20044;-75
2023/08/21 00:06:28;;;;;;;27.70;19.48;;;;;;;19.13;100.00;99117.50;4174832;28;20044;-74
2023/08/21 00:08:28;;;;;;;25.80;19.50;;;;;;;19.06;100.00;99109.97;4174266;28;20068;-75
2023/08/21 00:10:30;;;;;;;28.50;17.67;;;;;;;19.03;100.00;99114.41;4174631;28;20045;-75
2023/08/21 00:12:30;;;;;;;21.40;17.13;;;;;;;19.07;100.00;99112.34;4173459;28;20657;-75
2023/08/21 00:14:31;;;;;;;23.77;16.85;;;;;;;19.01;100.00;99111.22;4174467;28;20112;-75
2023/08/21 00:16:31;;;;;;;25.58;17.45;;;;;;;18.95;100.00;99109.28;4175074;28;20033;-75
2023/08/21 00:18:31;;;;;;;21.90;17.58;;;;;;;18.91;100.00;99114.94;4174461;28;20040;-75
2023/08/21 00:20:32;;;;;;;26.40;19.50;;;;;;;18.80;100.00;99109.47;4174164;28;20037;-74
2023/08/21 00:22:32;;;;;;;23.50;18.73;;;;;;;18.80;100.00;99117.09;4174112;28;20393;-75
2023/08/21 00:24:32;;;;;;;24.15;19.23;;;;;;;18.75;100.00;99109.91;4174574;28;20033;-74
2023/08/21 00:26:33;;;;;;;29.02;20.23;;;;;;;18.74;100.00;99105.53;4173598;28;20049;-75
2023/08/21 00:28:34;;;;;;;23.10;18.27;;;;;;;18.72;100.00;99115.56;4174492;28;20115;-75
2023/08/21 00:30:35;;;;;;;25.48;17.55;;;;;;;18.67;100.00;99114.00;4174531;28;20106;-75
2023/08/21 00:32:35;;;;;;;21.05;17.52;;;;;;;18.66;100.00;99118.03;4172512;28;20049;-74
2023/08/21 00:34:35;;;;;;;20.23;17.35;;;;;;;18.62;100.00;99114.47;4170366;28;20049;-75
2023/08/21 00:36:36;;;;;;;20.83;16.25;;;;;;;18.57;100.00;99117.69;4173132;28;20107;-75
2023/08/21 00:38:36;;;;;;;20.35;17.27;;;;;;;18.59;100.00;99120.88;4172941;28;20064;-75
2023/08/21 00:40:36;;;;;;;22.77;17.83;;;;;;;18.55;100.00;99120.13;4172543;28;20041;-75
2023/08/21 00:42:36;;;;;;;21.27;16.52;;;;;;;18.58;100.00;99110.09;4172003;28;20116;-75
2023/08/21 00:44:37;;;;;;;19.30;16.40;;;;;;;18.55;100.00;99106.13;4171631;28;20417;-74
2023/08/21 00:46:37;;;;;;;20.77;15.88;;;;;;;18.55;100.00;99103.31;4171913;28;20073;-75
2023/08/21 00:48:38;;;;;;;20.42;16.45;;;;;;;18.56;100.00;99104.13;4172038;28;20809;-75
2023/08/21 00:50:38;;;;;;;20.13;15.93;;;;;;;18.57;100.00;99098.09;4172864;28;20554;-74
2023/08/21 00:52:40;;;;;;;25.33;17.92;;;;;;;18.57;100.00;99105.69;4171930;28;20428;-75
2023/08/21 00:54:41;;;;;;;22.97;17.83;;;;;;;18.58;100.00;99101.69;4172063;28;20041;-75
2023/08/21 00:56:41;;;;;;;20.80;16.15;;;;;;;18.59;100.00;99103.28;4171570;28;20064;-74
2023/08/21 00:58:42;;;;;;;31.80;18.60;;;;;;;18.60;100.00;99105.66;4172659;28;20049;-74
2023/08/21 01:00:47;;;;;;;20.08;16.65;;;;;;;18.65;100.00;99110.00;4172108;28;20045;-75
2023/08/21 01:02:47;;;;;;;23.20;17.40;;;;;;;18.67;100.00;99100.00;4172483;28;20049;-75
2023/08/21 01:04:47;;;;;;;26.77;19.52;;;;;;;18.66;100.00;99100.41;4174319;28;20055;-74
2023/08/21 01:06:49;;;;;;;25.45;18.88;;;;;;;18.69;100.00;99099.56;4174161;28;20076;-75
2023/08/21 01:08:57;;;;;;;28.42;19.42;;;;;;;18.72;100.00;99095.97;4174133;28;20109;-74
2023/08/21 01:11:00;;;;;;;26.95;20.40;;;;;;;18.71;100.00;99100.78;4172839;28;20049;-75
2023/08/21 01:13:13;;;;;;;24.65;18.75;;;;;;;18.75;100.00;99095.09;4173029;28;20558;-75
2023/08/21 01:15:14;;;;;;;25.45;18.35;;;;;;;18.82;100.00;99100.63;4174135;28;20076;-74
2023/08/21 01:17:17;;;;;;;23.30;18.50;;;;;;;18.84;100.00;99089.00;4173706;28;20101;-75
2023/08/21 01:19:38;;;;;;;24.85;17.75;;;;;;;18.82;100.00;99100.63;4173924;28;20128;-75
2023/08/21 01:21:38;;;;;;;21.27;16.38;;;;;;;18.80;100.00;99098.25;4172747;28;20057;-75
2023/08/21 01:23:42;;;;;;;25.67;17.15;;;;;;;18.77;100.00;99101.88;4172920;28;20082;-74
2023/08/21 01:25:43;;;;;;;25.38;17.95;;;;;;;18.77;100.00;99101.09;4172872;28;20051;-75
2023/08/21 01:27:47;;;;;;;22.15;16.50;;;;;;;18.74;100.00;99099.91;4174054;28;20098;-74
2023/08/21 01:29:48;;;;;;;29.15;16.92;;;;;;;18.73;100.00;99095.53;4169272;28;20461;-74
2023/08/21 01:32:13;;;;;;;21.95;16.15;;;;;;;18.72;100.00;99087.53;4168539;28;20087;-75
2023/08/21 01:34:15;;;;;;;20.08;15.18;;;;;;;18.68;100.00;99090.38;4170883;28;20467;-75
2023/08/21 01:36:15;;;;;;;25.65;17.00;;;;;;;18.65;100.00;99087.59;4172616;28;20132;-75
2023/08/21 01:38:16;;;;;;;21.25;15.88;;;;;;;18.61;100.00;99090.41;4173349;28;20056;-74
2023/08/21 01:40:21;;;;;;;22.85;17.00;;;;;;;18.56;100.00;99093.69;4173095;28;20024;-74
2023/08/21 01:42:22;;;;;;;20.83;16.90;;;;;;;18.57;100.00;99095.28;4172869;28;20433;-75
2023/08/21 01:44:22;;;;;;;23.60;17.50;;;;;;;18.55;100.00;99083.69;4172655;28;20040;-75
2023/08/21 01:46:22;;;;;;;19.25;16.98;;;;;;;18.50;100.00;99084.94;4174419;28;20127;-74
2023/08/21 01:48:23;;;;;;;21.50;16.08;;;;;;;18.46;100.00;99089.00;4172090;28;20080;-75
2023/08/21 01:50:24;;;;;;;23.80;17.45;;;;;;;18.44;100.00;99086.59;4172643;28;20623;-75
2023/08/21 01:52:25;;;;;;;26.45;16.65;;;;;;;18.41;100.00;99081.03;4172639;28;20053;-75
2023/08/21 01:54:25;;;;;;;23.80;17.23;;;;;;;18.43;100.00;99085.00;4171154;28;20040;-74
2023/08/21 01:56:26;;;;;;;21.45;16.95;;;;;;;18.44;100.00;99088.59;4170487;28;20428;-75
2023/08/21 01:58:26;;;;;;;21.60;17.38;;;;;;;18.41;100.00;99089.44;4172193;28;20075;-75
2023/08/21 02:00:26;;;;;;;23.15;16.63;;;;;;;18.36;100.00;99096.28;4172109;28;20129;-75
2023/08/21 02:02:26;;;;;;;25.50;17.08;;;;;;;18.32;100.00;99094.75;4171779;28;20053;-75
2023/08/21 02:04:27;;;;;;;22.50;17.48;;;;;;;18.23;100.00;99090.44;4172624;28;20056;-74
2023/08/21 02:06:27;;;;;;;21.27;17.58;;;;;;;18.24;100.00;99085.63;4173111;28;20119;-74
2023/08/21 02:08:32;;;;;;;22.77;17.05;;;;;;;18.23;100.00;99096.03;4172477;28;20449;-75
2023/08/21 02:10:33;;;;;;;32.83;18.52;;;;;;;18.22;100.00;99094.44;4172667;28;20055;-75
2023/08/21 02:12:33;;;;;;;20.35;15.43;;;;;;;18.23;100.00;99084.03;4171869;28;20116;-75
2023/08/21 02:14:33;;;;;;;19.38;14.60;;;;;;;18.25;100.00;99088.00;4173212;28;20053;-74
2023/08/21 02:16:34;;;;;;;24.58;17.13;;;;;;;18.22;100.00;99085.25;4172982;28;20037;-74
2023/08/21 02:18:34;;;;;;;19.92;15.90;;;;;;;18.17;100.00;99094.09;4172820;28;20076;-75
2023/08/21 02:20:34;;;;;;;25.23;17.08;;;;;;;18.12;100.00;99092.53;4173117;28;20397;-75
2023/08/21 02:22:35;;;;;;;22.42;16.00;;;;;;;18.16;100.00;99089.69;4171351;28;20044;-75
2023/08/21 02:24:35;;;;;;;21.88;16.73;;;;;;;18.19;100.00;99088.84;4171263;28;20076;-75
2023/08/21 02:26:35;;;;;;;22.70;17.13;;;;;;;18.18;100.00;99095.66;4172744;28;20120;-75
2023/08/21 02:28:36;;;;;;;22.77;17.20;;;;;;;18.15;100.00;99096.50;4172809;28;20087;-74
2023/08/21 02:30:40;;;;;;;20.15;14.75;;;;;;;18.12;100.00;99098.13;4172557;28;20080;-75
2023/08/21 02:32:40;;;;;;;21.15;16.38;;;;;;;18.12;100.00;99094.50;4171690;28;20164;-75
2023/08/21 02:34:40;;;;;;;23.08;17.75;;;;;;;18.13;100.00;99084.94;4173124;28;20501;-74
2023/08/21 02:36:41;;;;;;;21.40;16.75;;;;;;;18.17;100.00;99085.69;4172182;28;20451;-74
2023/08/21 02:38:41;;;;;;;21.65;16.92;;;;;;;18.19;100.00;99092.44;4172217;28;20261;-74
2023/08/21 02:40:41;;;;;;;21.50;16.25;;;;;;;18.15;100.00;99091.69;4172404;28;20083;-75
2023/08/21 02:42:42;;;;;;;22.95;18.02;;;;;;;18.10;100.00;99086.53;4171722;28;20519;-74
2023/08/21 02:44:42;;;;;;;24.83;17.20;;;;;;;18.08;100.00;99096.56;4172838;28;20049;-75
2023/08/21 02:46:42;;;;;;;21.75;16.95;;;;;;;18.03;100.00;99094.19;4172614;28;20047;-75
2023/08/21 02:48:43;;;;;;;21.27;16.15;;;;;;;18.01;100.00;99085.44;4172556;28;20123;-74
2023/08/21 02:50:43;;;;;;;18.95;15.32;;;;;;;17.99;100.00;99099.06;4172231;28;20033;-75
2023/08/21 02:52:43;;;;;;;22.90;16.05;;;;;;;17.99;100.00;99090.66;4171051;28;20053;-74
2023/08/21 02:54:44;;;;;;;18.90;14.82;;;;;;;17.96;100.00;99095.88;4172476;28;20040;-74
2023/08/21 02:56:44;;;;;;;23.48;16.25;;;;;;;17.92;100.00;99097.09;4172367;28;20045;-75
2023/08/21 02:58:45;;;;;;;21.50;14.70;;;;;;;17.89;100.00;99093.13;4172526;28;20048;-74
2023/08/21 03:00:45;;;;;;;20.48;15.13;;;;;;;17.86;100.00;99096.72;4172474;28;20053;-74
2023/08/21 03:02:45;;;;;;;19.92;15.93;;;;;;;17.80;100.00;99092.81;4171487;28;20080;-74
2023/08/21 03:04:46;;;;;;;19.40;15.52;;;;;;;17.76;100.00;99097.63;4172577;28;20098;-74
2023/08/21 03:06:46;;;;;;;18.75;14.02;;;;;;;17.69;100.00;99097.63;4175029;28;20470;-75
2023/08/21 03:08:46;;;;;;;19.55;16.65;;;;;;;17.68;100.00;99102.44;4176145;28;20041;-74
2023/08/21 03:10:47;;;;;;;21.48;16.38;;;;;;;17.68;100.00;99101.66;4176121;28;20076;-75
2023/08/21 03:12:47;;;;;;;26.15;16.70;;;;;;;17.65;100.00;99096.88;4174540;28;20491;-74
2023/08/21 03:14:47;;;;;;;22.73;16.52;;;;;;;17.62;100.00;99101.28;4175490;28;20045;-75
2023/08/21 03:16:48;;;;;;;21.42;16.45;;;;;;;17.66;100.00;99098.47;4175365;28;20040;-74
2023/08/21 03:18:57;;;;;;;21.58;16.30;;;;;;;17.63;100.00;99100.09;4174591;28;20227;-74
2023/08/21 03:20:57;;;;;;;23.38;17.58;;;;;;;17.62;100.00;99097.69;4174102;28;20132;-74
2023/08/21 03:22:57;;;;;;;22.50;17.27;;;;;;;17.61;100.00;99099.69;4174753;28;20548;-75
2023/08/21 03:24:58;;;;;;;24.58;18.58;;;;;;;17.61;100.00;99104.50;4175402;28;20187;-74
2023/08/21 03:26:58;;;;;;;23.48;17.63;;;;;;;17.57;100.00;99098.13;4173738;28;20048;-74
2023/08/21 03:28:59;;;;;;;23.95;17.58;;;;;;;17.52;100.00;99102.16;4175345;28;20040;-75
2023/08/21 03:31:00;;;;;;;23.02;17.23;;;;;;;17.51;100.00;99099.78;4174816;28;20151;-74
2023/08/21 03:33:00;;;;;;;24.13;16.85;;;;;;;17.47;100.00;99099.00;4174177;28;20055;-74
2023/08/21 03:35:01;;;;;;;25.80;18.23;;;;;;;17.44;100.00;99097.00;4175120;28;20094;-74
2023/08/21 03:37:01;;;;;;;23.55;17.52;;;;;;;17.41;100.00;99102.22;4175311;28;20049;-74
2023/08/21 03:39:04;;;;;;;20.92;16.85;;;;;;;17.36;100.00;99091.47;4174817;28;20068;-75
2023/08/21 03:41:05;;;;;;;22.27;17.73;;;;;;;17.38;100.00;99107.84;4174987;28;20420;-75
2023/08/21 03:43:05;;;;;;;25.70;18.17;;;;;;;17.33;100.00;99097.09;4174481;28;20049;-74
2023/08/21 03:45:06;;;;;;;20.83;16.90;;;;;;;17.33;100.00;99102.69;4175945;28;20041;-74
2023/08/21 03:47:06;;;;;;;26.40;18.25;;;;;;;17.33;100.00;99106.28;4174654;28;20485;-74
2023/08/21 03:49:07;;;;;;;22.85;17.02;;;;;;;17.32;100.00;99110.28;4173759;28;20091;-75
2023/08/21 03:51:07;;;;;;;22.70;17.02;;;;;;;17.30;100.00;99104.31;4174764;28;20048;-75
2023/08/21 03:53:07;;;;;;;20.98;16.25;;;;;;;17.35;100.00;99108.66;4172989;28;20403;-75
2023/08/21 03:55:08;;;;;;;21.00;15.15;;;;;;;17.41;100.00;99101.44;4174995;28;20049;-74
2023/08/21 03:57:08;;;;;;;20.05;15.10;;;;;;;17.40;100.00;99111.81;4175049;28;20045;-75
2023/08/21 03:59:09;;;;;;;18.60;15.50;;;;;;;17.43;100.00;99101.81;4175205;28;20057;-75
2023/08/21 04:01:09;;;;;;;20.50;14.95;;;;;;;17.48;100.00;99106.19;4164111;28;20053;-74
2023/08/21 04:03:09;;;;;;;24.30;17.35;;;;;;;17.47;100.00;99094.22;4172559;28;20044;-75
2023/08/21 04:05:10;;;;;;;26.80;16.25;;;;;;;17.52;100.00;99104.16;4174892;28;20075;-74
2023/08/21 04:07:12;;;;;;;26.08;17.05;;;;;;;17.53;100.00;99100.16;4174760;28;20199;-75
2023/08/21 04:09:12;;;;;;;23.73;17.60;;;;;;;17.55;100.00;99103.34;4174625;28;20053;-75
2023/08/21 04:11:12;;;;;;;24.17;17.92;;;;;;;17.55;100.00;99100.56;4171634;28;20499;-75
2023/08/21 04:13:13;;;;;;;23.25;17.05;;;;;;;17.55;100.00;99103.34;4174006;28;20507;-74
2023/08/21 04:15:13;;;;;;;24.77;16.70;;;;;;;17.55;100.00;99111.75;4174655;28;20538;-74
2023/08/21 04:17:14;;;;;;;24.70;17.08;;;;;;;17.52;100.00;99109.75;4173532;28;20517;-75
2023/08/21 04:19:14;;;;;;;22.17;16.75;;;;;;;17.51;100.00;99103.38;4172325;28;20049;-74
2023/08/21 04:21:14;;;;;;;23.10;16.35;;;;;;;17.56;100.00;99105.75;4170457;28;20338;-74
2023/08/21 04:23:15;;;;;;;23.73;16.48;;;;;;;17.55;100.00;99106.94;4172244;28;20159;-74
2023/08/21 04:25:15;;;;;;;25.13;17.40;;;;;;;17.51;100.00;99099.78;4173834;28;20041;-74
2023/08/21 04:27:16;;;;;;;23.05;17.65;;;;;;;17.51;100.00;99110.97;4166592;28;20156;-74
2023/08/21 04:29:16;;;;;;;23.80;16.08;;;;;;;17.48;100.00;99112.59;4169941;28;20148;-74
2023/08/21 04:31:16;;;;;;;25.05;16.65;;;;;;;17.47;100.00;99104.59;4171918;28;20497;-74
2023/08/21 04:33:17;;;;;;;23.98;17.10;;;;;;;17.45;100.00;99107.00;4168643;28;20500;-74
2023/08/21 04:35:17;;;;;;;24.50;16.75;;;;;;;17.45;100.00;99102.19;4172671;28;20075;-75
2023/08/21 04:37:17;;;;;;;23.55;16.58;;;;;;;17.40;100.00;99103.44;4173844;28;20052;-74
2023/08/21 04:39:18;;;;;;;19.15;14.70;;;;;;;17.35;100.00;99103.06;4174361;28;20159;-74
2023/08/21 04:41:18;;;;;;;21.73;16.15;;;;;;;17.32;100.00;99101.88;4172042;28;20460;-75
2023/08/21 04:43:19;;;;;;;24.83;15.95;;;;;;;17.33;100.00;99105.47;4170116;28;20448;-74
2023/08/21 04:45:19;;;;;;;19.08;15.55;;;;;;;17.34;100.00;99109.88;4171260;28;20049;-74
2023/08/21 04:47:21;;;;;;;20.98;15.20;;;;;;;17.35;100.00;99115.03;4170095;28;20525;-74
2023/08/21 04:49:21;;;;;;;23.90;17.38;;;;;;;17.35;100.00;99115.03;4170731;28;20049;-74
2023/08/21 04:51:22;;;;;;;23.02;17.50;;;;;;;17.36;100.00;99110.25;4174106;28;20049;-74
2023/08/21 04:53:22;;;;;;;22.23;16.63;;;;;;;17.42;100.00;99117.00;4173007;28;20435;-75
2023/08/21 04:55:23;;;;;;;31.98;17.35;;;;;;;17.43;100.00;99107.41;4111439;28;20079;-74
2023/08/21 04:57:24;;;;;;;23.60;17.70;;;;;;;17.45;100.00;99118.97;4127633;27;20584;-75
2023/08/21 04:59:24;;;;;;;22.00;18.33;;;;;;;17.51;100.00;99128.53;4172357;28;20688;-74
2023/08/21 05:01:25;;;;;;;21.23;16.38;;;;;;;17.56;100.00;99132.91;4172673;28;20037;-74
2023/08/21 05:03:26;;;;;;;20.60;17.40;;;;;;;17.60;100.00;99128.09;4164796;28;20077;-74
2023/08/21 05:05:26;;;;;;;23.20;17.20;;;;;;;17.60;100.00;99130.88;4163125;28;20361;-75
2023/08/21 05:07:27;;;;;;;23.52;17.05;;;;;;;17.62;100.00;99134.84;4163555;28;20128;-74
2023/08/21 05:09:27;;;;;;;24.17;18.30;;;;;;;17.66;100.00;99144.03;4166918;28;20037;-74
2023/08/21 05:11:28;;;;;;;25.42;16.60;;;;;;;17.72;100.00;99149.25;4171264;28;20049;-75
2023/08/21 05:13:28;;;;;;;22.60;17.17;;;;;;;17.80;100.00;99154.38;4172869;28;20428;-74
2023/08/21 05:15:28;;;;;;;21.50;17.45;;;;;;;17.82;100.00;99154.75;4169765;28;20449;-75
2023/08/21 05:17:29;;;;;;;26.38;17.50;;;;;;;17.93;100.00;99154.69;4169034;28;20555;-75
2023/08/21 05:19:29;;;;;;;19.35;15.50;;;;;;;17.89;100.00;99153.91;4173199;28;20052;-74
2023/08/21 05:21:30;;;;;;;19.92;16.10;;;;;;;17.89;100.00;99151.13;4172808;28;20079;-74
2023/08/21 05:23:30;;;;;;;23.35;15.90;;;;;;;17.86;100.00;99163.13;4172387;28;20063;-74
2023/08/21 05:25:32;;;;;;;23.02;17.08;;;;;;;17.82;100.00;99156.75;4173366;28;20205;-74
2023/08/21 05:27:32;;;;;;;18.63;16.30;;;;;;;17.86;100.00;99161.13;4173247;28;20048;-75
2023/08/21 05:29:32;;;;;;;24.83;16.85;;;;;;;17.84;100.00;99165.53;4172633;28;20041;-75
2023/08/21 05:31:33;;;;;;;22.88;16.10;;;;;;;17.88;100.00;99164.31;4172871;28;20132;-75
2023/08/21 05:33:33;;;;;;;22.75;16.88;;;;;;;17.85;100.00;99158.72;4172582;28;20040;-75
2023/08/21 05:35:35;;;;;;;18.00;15.02;;;;;;;17.89;100.00;99156.72;4173347;28;20044;-75
2023/08/21 05:37:36;;;;;;;21.50;15.55;;;;;;;17.95;100.00;99172.66;4171844;28;20049;-75
2023/08/21 05:39:36;;;;;;;21.45;16.08;;;;;;;17.98;100.00;99175.84;4172085;28;20041;-74
2023/08/21 05:41:36;;;;;;;21.33;16.58;;;;;;;17.96;100.00;99167.88;4168663;28;20278;-74
2023/08/21 05:43:37;;;;;;;20.25;16.40;;;;;;;17.98;100.00;99164.66;4167217;28;20060;-75
2023/08/21 05:45:37;;;;;;;24.67;16.20;;;;;;;18.08;100.00;99177.78;4171664;28;20048;-75
2023/08/21 05:47:37;;;;;;;21.13;17.15;;;;;;;18.11;100.00;99174.94;4170677;28;20044;-74
2023/08/21 05:49:38;;;;;;;22.50;17.00;;;;;;;18.19;100.00;99181.28;4168992;28;20538;-74
2023/08/21 05:51:38;;;;;;;22.88;16.48;;;;;;;18.24;100.00;99178.03;4167688;28;20033;-75
2023/08/21 05:53:39;;;;;;;20.42;16.23;;;;;;;18.32;100.00;99182.38;4167668;28;20076;-74
2023/08/21 05:55:39;;;;;;;22.80;15.80;;;;;;;18.41;100.00;99184.69;4168872;28;20657;-75
2023/08/21 05:57:40;;;;;;;21.73;15.13;;;;;;;18.47;100.00;99177.44;4165541;28;20675;-74
2023/08/21 05:59:44;;;;;;;26.33;15.75;;;;;;;18.53;100.00;99184.19;4171333;28;20083;-74
2023/08/21 06:01:45;;;;;;;18.30;15.77;;;;;;;18.63;100.00;99183.31;4171168;28;20079;-74
2023/08/21 06:03:45;;;;;;;22.20;15.00;;;;;;;18.73;100.00;99192.84;4170724;28;20045;-74
2023/08/21 06:05:47;;;;;;;18.48;14.95;;;;;;;18.77;100.00;99179.56;4169293;28;20171;-74
2023/08/21 06:07:47;;;;;;;18.87;14.37;;;;;;;18.88;100.00;99177.47;4170655;28;20063;-74
2023/08/21 06:09:47;;;;;;;17.92;13.65;;;;;;;18.99;100.00;99180.16;4168358;28;21013;-75
2023/08/21 06:11:48;;;;;;;18.60;13.80;;;;;;;19.08;100.00;99181.25;4171945;28;20041;-74
2023/08/21 06:13:48;;;;;;;16.95;13.20;;;;;;;19.17;100.00;99175.13;4167559;28;20053;-75
2023/08/21 06:15:48;;;;;;;15.20;13.43;;;;;;;19.27;100.00;99173.41;4172230;28;20288;-74
2023/08/21 06:17:49;;;;;;;17.05;12.43;;;;;;;19.36;100.00;99179.28;4171572;28;20059;-74
2023/08/21 06:19:49;;;;;;;20.95;13.68;;;;;;;19.38;100.00;99178.91;4171507;28;20041;-75
2023/08/21 06:21:50;;;;;;;18.67;12.57;;;;;;;19.45;100.00;99179.59;4172176;28;20049;-75
2023/08/21 06:23:50;;;;;;;16.38;12.63;;;;;;;19.51;100.00;99186.31;4171608;28;20665;-74
2023/08/21 06:25:51;;;;;;;17.15;12.45;;;;;;;19.55;100.00;99189.09;4171463;28;20120;-74
2023/08/21 06:27:51;;;;;;;20.80;13.10;;;;;;;19.52;100.00;99181.50;4172393;28;20079;-74
2023/08/21 06:29:51;;;;;;;14.85;12.63;;;;;;;19.58;100.00;99193.88;4171882;28;20393;-75
2023/08/21 06:31:52;;;;;;;14.63;12.38;;;;;;;19.65;100.00;99188.16;4172321;28;20067;-74
2023/08/21 06:33:52;;;;;;;17.80;12.63;;;;;;;19.68;100.00;99187.31;4172654;28;20131;-75
2023/08/21 06:35:52;;;;;;;17.35;13.10;;;;;;;19.71;100.00;99186.50;4172422;28;20056;-75
2023/08/21 06:37:54;;;;;;;17.50;13.15;;;;;;;19.73;100.00;99192.47;4172550;28;20039;-75
2023/08/21 06:39:54;;;;;;;16.93;13.80;;;;;;;19.78;100.00;99192.00;4171956;28;20508;-75
2023/08/21 06:41:55;;;;;;;14.93;12.32;;;;;;;19.87;100.00;99195.09;4172913;28;20033;-75
2023/08/21 06:43:55;;;;;;;15.77;12.02;;;;;;;19.93;100.00;99192.56;4171681;28;20053;-74
2023/08/21 06:45:56;;;;;;;20.33;12.18;;;;;;;20.01;100.00;99194.06;4172452;28;20052;-74
2023/08/21 06:47:56;;;;;;;16.15;12.10;;;;;;;20.02;100.00;99189.22;4172821;28;20480;-75
2023/08/21 06:49:56;;;;;;;13.40;11.18;;;;;;;20.08;100.00;99202.38;4171894;28;20052;-74
2023/08/21 06:51:57;;;;;;;15.43;12.43;;;;;;;20.12;100.00;99194.69;4172839;28;20045;-74
2023/08/21 06:53:57;;;;;;;14.50;12.60;;;;;;;20.20;100.00;99209.44;4171987;28;20268;-74
2023/08/21 06:55:57;;;;;;;14.27;11.70;;;;;;;20.24;100.00;99201.72;4172242;28;20044;-74
2023/08/21 06:57:58;;;;;;;14.13;11.98;;;;;;;20.28;100.00;99204.50;4172468;28;20049;-74
2023/08/21 06:59:58;;;;;;;15.00;11.73;;;;;;;20.35;100.00;99207.97;4171929;28;20076;-75
2023/08/21 07:01:58;;;;;;;15.65;11.70;;;;;;;20.40;100.00;99204.69;4172758;28;20468;-75
2023/08/21 07:03:59;;;;;;;16.27;12.70;;;;;;;20.49;100.00;99206.97;4171529;28;20473;-75
2023/08/21 07:06:00;;;;;;;14.48;12.30;;;;;;;20.56;100.00;99206.84;4171952;28;20435;-75
2023/08/21 07:08:00;;;;;;;16.52;12.77;;;;;;;20.61;100.00;99203.56;4172587;28;20159;-74
2023/08/21 07:10:00;;;;;;;14.57;11.77;;;;;;;20.68;100.00;99216.69;4171842;28;20053;-75
2023/08/21 07:12:01;;;;;;;17.05;12.85;;;;;;;20.71;100.00;99211.00;4171660;28;20405;-76
2023/08/21 07:14:02;;;;;;;14.82;12.63;;;;;;;20.75;100.00;99208.91;4171516;28;20735;-75
2023/08/21 07:16:05;;;;;;;20.40;12.60;;;;;;;20.82;100.00;99205.19;4172124;28;20356;-75
2023/08/21 07:18:05;;;;;;;16.83;12.77;;;;;;;20.84;100.00;99208.34;4172097;28;20029;-75
2023/08/21 07:20:06;;;;;;;16.23;12.60;;;;;;;20.93;100.00;99208.59;4172374;28;20131;-74
2023/08/21 07:22:07;;;;;;;18.92;13.15;;;;;;;21.02;100.00;99216.47;4172422;28;20025;-74
2023/08/21 07:24:07;;;;;;;22.42;12.98;;;;;;;21.09;100.00;99207.09;4171445;28;20455;-75
2023/08/21 07:26:08;;;;;;;16.40;13.05;;;;;;;21.16;100.00;99212.59;4172184;28;20407;-75
2023/08/21 07:28:10;;;;;;;16.70;14.15;;;;;;;21.19;100.00;99206.09;4171803;28;20047;-75
2023/08/21 07:30:11;;;;;;;14.48;12.65;;;;;;;21.25;100.00;99219.22;4172537;28;20079;-75
2023/08/21 07:32:11;;;;;;;15.52;11.70;;;;;;;21.34;100.00;99221.50;4172019;28;20041;-75
2023/08/21 07:34:12;;;;;;;12.70;11.30;;;;;;;21.42;100.00;99217.31;4171698;28;20083;-74
2023/08/21 07:36:16;;;;;;;16.73;12.35;;;;;;;21.51;100.00;99216.72;4172650;28;20028;-75
2023/08/21 07:38:17;;;;;;;18.10;13.75;;;;;;;21.58;100.00;99223.00;4172249;28;20496;-74
2023/08/21 07:40:17;;;;;;;16.25;13.25;;;;;;;21.59;100.00;99213.31;4171877;28;20113;-74
2023/08/21 07:42:17;;;;;;;16.00;13.25;;;;;;;21.63;100.00;99223.72;4171562;28;20029;-74
2023/08/21 07:44:18;;;;;;;15.80;11.98;;;;;;;21.65;100.00;99216.44;4171898;28;20044;-74
2023/08/21 07:46:19;;;;;;;15.18;12.40;;;;;;;21.74;100.00;99213.03;4171903;28;20053;-75
2023/08/21 07:48:19;;;;;;;14.60;12.93;;;;;;;21.80;100.00;99214.09;4171805;28;20462;-74
2023/08/21 07:50:19;;;;;;;15.52;12.77;;;;;;;21.87;100.00;99219.56;4172073;28;20287;-74
2023/08/21 07:52:20;;;;;;;15.55;12.90;;;;;;;21.90;100.00;99215.88;4173020;28;20037;-74
2023/08/21 07:54:21;;;;;;;17.02;14.65;;;;;;;21.94;100.00;99213.00;4174421;28;20061;-75
2023/08/21 07:56:21;;;;;;;16.27;13.05;;;;;;;22.00;100.00;99214.84;4174898;28;20059;-75
2023/08/21 07:58:21;;;;;;;16.38;11.98;;;;;;;22.03;100.00;99213.19;4175142;28;20445;-74
2023/08/21 08:00:22;;;;;;;18.35;12.70;;;;;;;22.11;100.00;99211.81;4174816;28;20572;-75
2023/08/21 08:02:23;;;;;;;27.88;12.88;;;;;;;22.12;100.00;99210.59;4175109;28;20037;-75
2023/08/21 08:04:23;;;;;;;14.45;12.25;;;;;;;22.15;100.00;99209.69;4175029;28;20040;-74
2023/08/21 08:06:24;;;;;;;14.07;12.43;;;;;;;22.18;100.00;99205.19;4174646;28;20040;-74
2023/08/21 08:08:25;;;;;;;12.52;10.45;;;;;;;22.18;100.00;99210.84;4174713;28;20408;-75
2023/08/21 08:10:25;;;;;;;16.10;12.45;;;;;;;22.20;100.00;99206.38;4174639;28;20280;-75
2023/08/21 08:12:26;;;;;;;14.95;11.85;;;;;;;22.25;100.00;99205.81;4174293;28;20543;-75
2023/08/21 08:14:26;;;;;;;12.70;10.20;;;;;;;22.19;100.00;99201.97;4174256;28;20045;-75
2023/08/21 08:16:27;;;;;;;13.15;11.20;;;;;;;22.27;100.00;99209.00;4174547;28;20195;-75
2023/08/21 08:18:27;;;;;;;13.98;11.70;;;;;;;22.28;100.00;99207.78;4174931;28;20045;-75
2023/08/21 08:20:27;;;;;;;15.68;12.50;;;;;;;22.25;100.00;99205.81;4174290;28;20098;-75
2023/08/21 08:22:28;;;;;;;18.65;13.25;;;;;;;22.27;100.00;99206.19;4174332;28;20424;-75
2023/08/21 08:24:28;;;;;;;17.30;12.95;;;;;;;22.26;100.00;99206.59;4174393;28;20041;-75
2023/08/21 08:26:29;;;;;;;17.17;12.32;;;;;;;22.25;100.00;99199.38;4174211;28;20067;-74
2023/08/21 08:28:29;;;;;;;17.13;11.85;;;;;;;22.30;100.00;99202.47;4174799;28;20144;-75
2023/08/21 08:30:30;;;;;;;14.80;13.23;;;;;;;22.34;100.00;99199.56;4174633;28;20153;-75
2023/08/21 08:32:30;;;;;;;16.27;14.10;;;;;;;22.39;100.00;99204.69;4162888;28;20053;-75
2023/08/21 08:34:30;;;;;;;15.05;12.27;;;;;;;22.46;100.00;99209.34;4173414;28;20063;-75
2023/08/21 08:36:31;;;;;;;16.70;14.35;;;;;;;22.51;100.00;99206.00;4174163;28;20065;-74
2023/08/21 08:38:31;;;;;;;15.82;12.40;;;;;;;22.59;100.00;99201.75;4174507;28;20507;-74
2023/08/21 08:40:33;;;;;;;19.48;14.35;;;;;;;22.63;100.00;99200.44;4173788;28;20083;-75
2023/08/21 08:42:35;;;;;;;18.23;13.85;;;;;;;22.69;100.00;99200.72;4173433;28;20072;-75
2023/08/21 08:44:38;;;;;;;19.20;14.32;;;;;;;22.79;100.00;99207.31;4174267;28;20100;-75
2023/08/21 08:46:38;;;;;;;23.38;13.90;;;;;;;22.84;100.00;99203.94;4174866;28;20041;-75
2023/08/21 08:48:38;;;;;;;21.90;15.77;;;;;;;22.90;100.00;99202.97;4174006;28;20049;-75
2023/08/21 08:50:40;;;;;;;18.33;14.63;;;;;;;22.92;100.00;99199.72;4174086;28;20045;-75
2023/08/21 08:52:41;;;;;;;16.23;12.73;;;;;;;22.88;100.00;99194.19;4173691;28;20750;-75
2023/08/21 08:54:41;;;;;;;22.65;16.05;;;;;;;22.95;100.00;99201.66;4173504;28;20044;-75
2023/08/21 08:56:41;;;;;;;18.85;15.55;;;;;;;22.96;100.00;99198.38;4174626;28;20562;-75
2023/08/21 08:58:42;;;;;;;21.13;15.38;;;;;;;22.93;100.00;99190.03;4173433;28;20033;-75
2023/08/21 09:00:43;;;;;;;20.23;15.63;;;;;;;22.94;100.00;99185.97;4174207;28;20604;-75
2023/08/21 09:02:43;;;;;;;20.63;15.93;;;;;;;23.01;100.00;99187.81;4173192;28;20053;-75
2023/08/21 09:04:44;;;;;;;17.27;15.07;;;;;;;22.99;100.00;99188.22;4173842;28;20531;-75
2023/08/21 09:06:44;;;;;;;16.98;13.48;;;;;;;23.02;100.00;99178.91;4174020;28;20048;-75
2023/08/21 09:08:57;;;;;;;15.40;13.77;;;;;;;23.07;100.00;99174.72;4173643;28;20047;-75